Time;durP1;ratioP1;P1;durP2;ratioP2;P2;SDS_P1;SDS_P2;PMS_P1;PMS_P2;Temp;Humidity;BMP_temperature;BMP_pressure;BME280_temperature;BME280_humidity;BME280_pressure;Samples;Min_cycle;Max_cycle;Signal;HPM_P1;HPM_P2
2023/05/15 00:00:11;;;;;;;48.67;29.75;;;14.60;99.90;;;;;;4972313;28;20572;-74
2023/05/15 00:02:38;;;;;;;44.83;26.90;;;14.50;99.90;;;;;;4988337;28;20053;-74
2023/05/15 00:05:07;;;;;;;55.15;27.73;;;14.70;99.90;;;;;;4955116;28;20129;-76
2023/05/15 00:07:34;;;;;;;54.40;28.00;;;14.70;99.90;;;;;;4956579;28;20043;-77
2023/05/15 00:10:00;;;;;;;73.18;29.40;;;14.70;99.90;;;;;;4987416;28;20041;-78
2023/05/15 00:12:26;;;;;;;59.08;28.08;;;14.60;99.90;;;;;;5005122;28;20069;-77
2023/05/15 00:14:52;;;;;;;65.35;27.42;;;14.30;99.90;;;;;;4989726;28;20514;-76
2023/05/15 00:17:17;;;;;;;58.80;30.40;;;14.60;99.90;;;;;;4971625;28;20480;-75
2023/05/15 00:19:44;;;;;;;59.88;29.08;;;14.20;99.90;;;;;;4962081;28;20076;-79
2023/05/15 00:22:10;;;;;;;53.17;30.40;;;14.50;99.90;;;;;;5004297;28;20038;-78
2023/05/15 00:24:35;;;;;;;66.38;29.48;;;14.50;99.90;;;;;;4986745;28;20141;-75
2023/05/15 00:27:01;;;;;;;62.25;30.95;;;14.50;99.90;;;;;;5008831;28;20046;-80
2023/05/15 00:29:27;;;;;;;64.78;28.80;;;14.40;99.90;;;;;;5003194;28;20120;-77
2023/05/15 00:31:53;;;;;;;50.05;29.35;;;14.20;99.90;;;;;;4972122;28;20166;-77
2023/05/15 00:34:19;;;;;;;51.78;28.85;;;14.20;99.90;;;;;;4989526;28;20061;-78
2023/05/15 00:36:44;;;;;;;52.50;29.55;;;14.40;99.90;;;;;;4971018;28;20088;-77
2023/05/15 00:39:10;;;;;;;110.35;30.63;;;14.40;99.90;;;;;;4980788;28;20078;-74
2023/05/15 00:41:37;;;;;;;62.58;29.55;;;14.30;99.90;;;;;;4987173;28;20042;-75
2023/05/15 00:44:05;;;;;;;66.80;31.20;;;14.40;99.90;;;;;;5013260;28;20046;-76
2023/05/15 00:46:31;;;;;;;90.20;30.35;;;14.00;99.90;;;;;;4987174;28;20045;-78
2023/05/15 00:48:57;;;;;;;79.15;32.88;;;14.40;99.90;;;;;;4969930;28;20046;-75
2023/05/15 00:51:25;;;;;;;84.03;30.73;;;14.30;99.90;;;;;;4972874;28;20455;-78
2023/05/15 00:53:55;;;;;;;109.75;34.30;;;14.10;99.90;;;;;;4985150;28;20081;-77
2023/05/15 00:56:21;;;;;;;73.45;35.03;;;14.40;99.90;;;;;;5005412;28;20060;-77
2023/05/15 00:58:48;;;;;;;85.75;32.47;;;14.50;99.90;;;;;;5014608;28;20121;-78
2023/05/15 01:01:15;;;;;;;71.25;29.27;;;14.40;99.90;;;;;;5019498;28;20054;-77
2023/05/15 01:03:45;;;;;;;52.55;33.30;;;14.10;99.90;;;;;;4983168;28;20078;-76
2023/05/15 01:06:11;;;;;;;49.33;31.65;;;14.20;99.90;;;;;;4972119;28;20145;-75
2023/05/15 01:08:48;;;;;;;55.13;29.98;;;14.30;99.90;;;;;;4952555;28;20042;-76
2023/05/15 01:11:16;;;;;;;53.75;33.03;;;14.10;99.90;;;;;;4977312;28;20841;-74
2023/05/15 01:13:42;;;;;;;51.25;30.75;;;14.40;99.90;;;;;;4987133;28;20704;-76
2023/05/15 01:16:09;;;;;;;53.58;32.35;;;14.10;99.90;;;;;;4986655;28;20058;-76
2023/05/15 01:18:37;;;;;;;56.50;31.67;;;14.40;99.90;;;;;;4985298;28;20045;-79
2023/05/15 01:21:34;;;;;;;52.72;32.55;;;14.30;99.90;;;;;;4982233;28;20046;-76
2023/05/15 01:24:37;;;;;;;53.75;31.45;;;14.20;99.90;;;;;;4980951;28;20054;-75
2023/05/15 01:27:29;;;;;;;47.38;30.15;;;14.40;99.90;;;;;;4999247;28;20041;-76
2023/05/15 01:29:59;;;;;;;52.85;31.33;;;14.30;99.90;;;;;;5011678;28;20041;-78
2023/05/15 01:32:53;;;;;;;53.67;32.28;;;14.30;99.90;;;;;;4973500;28;20345;-76
2023/05/15 01:35:37;;;;;;;58.72;32.60;;;14.00;99.90;;;;;;4980472;28;20526;-74
2023/05/15 01:38:22;;;;;;;50.95;32.45;;;14.50;99.90;;;;;;5015276;28;22003;-76
2023/05/15 01:41:04;;;;;;;57.45;32.13;;;14.10;99.90;;;;;;4966510;28;20064;-78
2023/05/15 01:43:32;;;;;;;57.22;33.78;;;14.30;99.90;;;;;;4966614;28;20091;-79
2023/05/15 01:45:58;;;;;;;56.85;32.58;;;14.30;99.90;;;;;;4966931;28;20498;-77
2023/05/15 01:48:26;;;;;;;55.80;32.15;;;14.40;99.90;;;;;;4997993;28;20183;-76
2023/05/15 01:50:56;;;;;;;54.28;31.33;;;14.00;99.90;;;;;;4997910;28;20038;-76
2023/05/15 01:53:23;;;;;;;64.07;33.08;;;14.50;99.90;;;;;;5064595;28;20038;-76
2023/05/15 01:55:49;;;;;;;76.30;32.97;;;14.30;99.90;;;;;;4972209;28;20046;-77
2023/05/15 01:58:15;;;;;;;65.25;30.33;;;14.30;99.90;;;;;;4970558;28;20095;-76
2023/05/15 02:00:42;;;;;;;105.07;32.80;;;14.10;99.90;;;;;;4987485;28;20099;-76
2023/05/15 02:03:08;;;;;;;126.13;33.22;;;14.40;99.90;;;;;;4968897;28;20401;-78
2023/05/15 02:05:34;;;;;;;106.60;31.70;;;13.80;99.90;;;;;;4984652;28;20040;-75
2023/05/15 02:08:03;;;;;;;117.13;33.35;;;13.80;99.90;;;;;;4939713;28;20034;-77
2023/05/15 02:10:30;;;;;;;87.82;33.95;;;14.10;99.90;;;;;;4966537;28;21231;-75
2023/05/15 02:12:57;;;;;;;69.25;29.45;;;13.90;99.90;;;;;;5054848;28;20041;-78
2023/05/15 02:15:23;;;;;;;65.90;27.65;;;14.30;99.90;;;;;;4971868;28;20042;-73
2023/05/15 02:17:49;;;;;;;92.40;26.75;;;14.20;99.90;;;;;;4988579;28;20103;-76
2023/05/15 02:20:15;;;;;;;147.98;26.52;;;14.10;99.90;;;;;;4955290;28;20390;-77
2023/05/15 02:22:41;;;;;;;148.52;26.83;;;13.80;99.90;;;;;;4971843;28;20052;-75
2023/05/15 02:25:07;;;;;;;139.48;27.95;;;14.00;99.90;;;;;;4996594;28;20050;-75
2023/05/15 02:27:56;;;;;;;143.95;28.55;;;13.90;99.90;;;;;;4970801;28;20046;-76
2023/05/15 02:30:37;;;;;;;124.35;28.52;;;13.60;99.90;;;;;;4998259;28;20103;-76
2023/05/15 02:33:15;;;;;;;90.85;29.48;;;13.70;99.90;;;;;;4975338;28;20070;-76
2023/05/15 02:35:57;;;;;;;110.55;29.23;;;14.00;99.90;;;;;;5003662;28;20050;-76
2023/05/15 02:38:46;;;;;;;91.30;29.08;;;13.80;99.90;;;;;;4972961;28;20124;-77
2023/05/15 02:41:13;;;;;;;76.78;28.27;;;13.70;99.90;;;;;;5009430;28;20042;-77
2023/05/15 02:43:40;;;;;;;166.35;32.83;;;13.60;99.90;;;;;;4988103;28;20050;-78
2023/05/15 02:46:07;;;;;;;120.80;30.00;;;13.60;99.90;;;;;;4984980;28;20058;-79
2023/05/15 02:48:36;;;;;;;121.47;31.27;;;13.70;99.90;;;;;;5004918;28;20521;-76
2023/05/15 02:51:02;;;;;;;90.72;30.38;;;13.70;99.90;;;;;;4977668;28;20042;-76
2023/05/15 02:53:28;;;;;;;106.70;30.90;;;14.00;99.90;;;;;;4981306;28;20050;-77
2023/05/15 02:55:54;;;;;;;104.95;29.48;;;14.10;99.90;;;;;;4999532;28;20037;-74
2023/05/15 02:58:20;;;;;;;88.82;33.28;;;13.80;99.90;;;;;;5024208;28;20045;-73
2023/05/15 03:00:45;;;;;;;90.95;30.98;;;13.80;99.90;;;;;;4992582;28;20038;-73
2023/05/15 03:03:11;;;;;;;138.48;35.05;;;13.50;99.90;;;;;;5007456;28;21763;-75
2023/05/15 03:05:37;;;;;;;72.22;32.65;;;13.30;99.90;;;;;;4974990;28;20095;-76
2023/05/15 03:08:03;;;;;;;96.78;34.35;;;13.60;99.90;;;;;;4959684;28;20041;-77
2023/05/15 03:10:29;;;;;;;91.60;32.50;;;13.90;99.90;;;;;;4973460;28;20095;-74
2023/05/15 03:12:58;;;;;;;104.70;34.85;;;13.50;99.90;;;;;;4956564;28;20034;-78
2023/05/15 03:15:24;;;;;;;146.68;34.13;;;13.30;99.90;;;;;;4973680;28;20390;-77
2023/05/15 03:17:50;;;;;;;164.85;30.27;;;13.40;99.90;;;;;;4975745;28;20049;-75
2023/05/15 03:20:15;;;;;;;94.55;29.80;;;13.30;99.90;;;;;;4973101;28;20085;-76
2023/05/15 03:22:41;;;;;;;74.03;29.67;;;13.50;99.90;;;;;;4960690;28;20052;-78
2023/05/15 03:25:09;;;;;;;74.47;29.40;;;13.70;99.90;;;;;;4964609;28;20048;-75
2023/05/15 03:27:35;;;;;;;103.70;28.73;;;13.30;99.90;;;;;;5068092;28;20042;-79
2023/05/15 03:30:01;;;;;;;103.18;29.63;;;13.50;99.90;;;;;;4979213;28;20099;-75
2023/05/15 03:32:27;;;;;;;99.15;29.13;;;13.20;99.90;;;;;;5017445;28;20076;-78
2023/05/15 03:34:53;;;;;;;63.05;27.17;;;13.10;99.90;;;;;;4991091;28;20389;-78
2023/05/15 03:37:18;;;;;;;65.43;25.30;;;13.20;99.90;;;;;;4978586;28;20421;-74
2023/05/15 03:39:44;;;;;;;105.38;27.50;;;13.30;99.90;;;;;;5017074;28;20032;-76
2023/05/15 03:42:10;;;;;;;88.90;28.88;;;13.30;99.90;;;;;;4963277;28;20386;-73
2023/05/15 03:44:35;;;;;;;64.53;28.35;;;13.00;99.90;;;;;;4969525;28;20160;-76
2023/05/15 03:47:04;;;;;;;79.40;29.45;;;13.00;99.90;;;;;;4976329;28;20057;-76
2023/05/15 03:49:32;;;;;;;66.80;27.08;;;13.30;99.90;;;;;;4970330;28;20052;-75
2023/05/15 03:51:58;;;;;;;63.63;26.55;;;13.50;99.90;;;;;;4995758;28;20172;-80
2023/05/15 03:54:47;;;;;;;58.90;26.13;;;12.90;99.90;;;;;;4984101;28;20116;-73
2023/05/15 03:57:13;;;;;;;54.72;23.00;;;12.90;99.90;;;;;;4963133;28;20497;-75
2023/05/15 03:59:38;;;;;;;47.88;22.73;;;13.00;99.90;;;;;;4968577;28;20047;-76
2023/05/15 04:02:04;;;;;;;41.53;22.15;;;12.90;99.90;;;;;;5016621;28;20079;-78
2023/05/15 04:04:30;;;;;;;44.67;22.15;;;13.10;99.90;;;;;;4967914;28;20046;-74
2023/05/15 04:06:56;;;;;;;36.17;21.55;;;13.10;99.90;;;;;;4993085;28;20385;-78
2023/05/15 04:09:22;;;;;;;32.90;20.40;;;13.10;99.90;;;;;;4965744;28;20124;-73
2023/05/15 04:11:47;;;;;;;37.30;22.05;;;13.10;99.90;;;;;;4983704;28;20038;-75
2023/05/15 04:14:13;;;;;;;35.60;21.42;;;13.40;99.90;;;;;;4985753;28;20046;-75
2023/05/15 04:16:39;;;;;;;34.60;21.90;;;13.30;99.90;;;;;;4971171;28;20050;-77
2023/05/15 04:19:05;;;;;;;37.58;23.80;;;13.50;99.90;;;;;;4971869;28;20044;-75
2023/05/15 04:21:30;;;;;;;38.50;22.65;;;13.60;99.90;;;;;;4987961;28;20117;-79
2023/05/15 04:23:56;;;;;;;37.22;24.38;;;13.30;99.90;;;;;;4955855;28;20046;-75
2023/05/15 04:26:22;;;;;;;37.97;25.20;;;13.30;99.90;;;;;;4971154;28;20046;-74
2023/05/15 04:28:48;;;;;;;38.38;26.80;;;13.30;99.90;;;;;;4987850;28;20172;-77
2023/05/15 04:31:13;;;;;;;43.38;30.02;;;13.70;99.90;;;;;;5000992;28;20125;-77
2023/05/15 04:33:39;;;;;;;42.72;29.92;;;13.40;99.90;;;;;;4999975;28;20076;-75
2023/05/15 04:36:06;;;;;;;42.17;28.90;;;13.50;99.90;;;;;;5003900;28;20037;-77
2023/05/15 04:38:32;;;;;;;46.25;32.22;;;13.70;99.90;;;;;;4957790;28;20053;-74
2023/05/15 04:40:58;;;;;;;40.58;29.10;;;13.70;99.90;;;;;;5057865;28;20045;-78
2023/05/15 04:43:23;;;;;;;43.38;30.05;;;13.70;99.90;;;;;;4972151;28;20046;-75
2023/05/15 04:45:49;;;;;;;42.17;29.88;;;13.80;99.90;;;;;;4953637;28;20080;-76
2023/05/15 04:48:17;;;;;;;40.13;30.30;;;13.50;99.90;;;;;;4971191;28;20052;-77
2023/05/15 04:50:42;;;;;;;39.95;28.75;;;14.10;99.90;;;;;;4991678;28;20038;-75
2023/05/15 04:53:08;;;;;;;38.40;27.17;;;14.00;99.90;;;;;;4970112;28;20386;-76
2023/05/15 04:55:34;;;;;;;34.55;26.05;;;13.90;99.90;;;;;;4985809;28;20489;-76
2023/05/15 04:57:59;;;;;;;32.42;23.25;;;14.10;99.90;;;;;;4964438;28;20070;-77
2023/05/15 05:00:25;;;;;;;26.77;22.25;;;14.30;99.90;;;;;;4988190;28;20046;-77
2023/05/15 05:02:50;;;;;;;25.92;22.23;;;14.10;99.90;;;;;;4989307;28;20042;-75
2023/05/15 05:05:16;;;;;;;27.65;20.27;;;14.00;99.90;;;;;;4981090;28;20646;-77
2023/05/15 05:07:45;;;;;;;26.25;20.30;;;14.50;99.90;;;;;;4954528;28;20052;-76
2023/05/15 05:10:11;;;;;;;24.50;20.05;;;14.00;99.90;;;;;;4955201;28;20041;-77
2023/05/15 05:12:36;;;;;;;24.67;19.60;;;14.00;99.90;;;;;;4972664;28;20324;-74
2023/05/15 05:15:02;;;;;;;22.85;19.13;;;14.10;99.90;;;;;;4985461;28;20049;-75
2023/05/15 05:17:30;;;;;;;22.30;18.48;;;14.20;99.90;;;;;;4969317;28;20050;-78
2023/05/15 05:19:55;;;;;;;22.45;18.77;;;14.00;99.90;;;;;;5010205;28;20034;-75
2023/05/15 05:22:21;;;;;;;24.48;19.52;;;14.00;99.90;;;;;;4950745;28;20040;-80
2023/05/15 05:24:46;;;;;;;21.23;18.60;;;14.10;99.90;;;;;;4968950;28;20546;-75
2023/05/15 05:27:12;;;;;;;22.60;18.63;;;14.50;99.90;;;;;;4969228;28;20045;-76
2023/05/15 05:29:38;;;;;;;20.67;17.73;;;14.50;99.90;;;;;;4996799;28;20050;-74
2023/05/15 05:32:06;;;;;;;23.70;20.52;;;14.70;99.90;;;;;;4952247;28;20600;-74
2023/05/15 05:34:31;;;;;;;25.80;21.20;;;14.60;99.90;;;;;;4966719;28;20102;-75
2023/05/15 05:36:57;;;;;;;25.35;20.75;;;14.60;99.90;;;;;;4985578;28;20382;-77
2023/05/15 05:39:23;;;;;;;22.63;19.95;;;14.50;99.90;;;;;;4989963;28;20066;-73
2023/05/15 05:41:49;;;;;;;25.05;20.33;;;15.10;99.90;;;;;;4961209;28;20130;-77
2023/05/15 05:44:14;;;;;;;27.15;21.63;;;14.80;99.90;;;;;;4965606;28;20034;-76
2023/05/15 05:46:41;;;;;;;22.83;20.20;;;15.10;99.90;;;;;;4981533;28;20161;-74
2023/05/15 05:49:07;;;;;;;24.42;20.88;;;15.00;99.90;;;;;;4965680;28;20050;-76
2023/05/15 05:51:37;;;;;;;24.75;20.52;;;15.00;99.90;;;;;;4998538;28;20100;-74
2023/05/15 05:54:03;;;;;;;24.77;20.27;;;14.90;99.90;;;;;;4984580;28;20650;-75
2023/05/15 05:56:29;;;;;;;27.25;21.50;;;15.10;99.90;;;;;;5009858;28;20034;-76
2023/05/15 05:58:55;;;;;;;25.80;20.52;;;15.40;99.90;;;;;;4966843;28;20659;-73
2023/05/15 06:01:21;;;;;;;24.40;20.80;;;15.10;99.90;;;;;;4990543;28;20097;-75
2023/05/15 06:03:47;;;;;;;23.95;20.55;;;15.20;99.90;;;;;;4987002;28;20053;-79
2023/05/15 06:06:13;;;;;;;23.80;20.58;;;15.40;99.90;;;;;;4952699;28;20038;-75
2023/05/15 06:08:38;;;;;;;28.50;21.35;;;15.30;99.90;;;;;;4984279;28;20156;-76
2023/05/15 06:11:05;;;;;;;26.17;21.98;;;15.20;99.90;;;;;;4992228;28;20073;-75
2023/05/15 06:13:31;;;;;;;25.27;21.50;;;15.90;99.90;;;;;;4967328;28;20045;-76
2023/05/15 06:15:56;;;;;;;22.17;19.35;;;15.80;99.90;;;;;;4982930;28;20049;-74
2023/05/15 06:18:23;;;;;;;21.63;18.52;;;15.70;99.90;;;;;;4994643;28;20128;-75
2023/05/15 06:20:49;;;;;;;19.67;16.40;;;15.40;99.90;;;;;;4988918;28;20762;-76
2023/05/15 06:23:14;;;;;;;19.88;17.17;;;15.60;99.90;;;;;;4951038;28;20045;-75
2023/05/15 06:25:40;;;;;;;20.75;18.42;;;15.20;99.90;;;;;;4971898;28;20038;-79
2023/05/15 06:28:06;;;;;;;20.92;17.65;;;15.70;99.90;;;;;;4953134;28;20030;-74
2023/05/15 06:30:31;;;;;;;23.33;18.13;;;15.20;99.90;;;;;;4997154;28;20130;-75
2023/05/15 06:32:57;;;;;;;20.48;17.60;;;15.40;99.90;;;;;;4975428;28;20034;-75
2023/05/15 06:35:23;;;;;;;19.73;17.33;;;15.90;99.90;;;;;;4975819;28;20045;-76
2023/05/15 06:37:49;;;;;;;22.33;17.70;;;16.20;99.90;;;;;;4991958;28;20117;-78
2023/05/15 06:40:15;;;;;;;21.88;17.38;;;16.20;99.90;;;;;;4991452;28;20489;-76
2023/05/15 06:42:41;;;;;;;18.73;15.98;;;16.50;99.90;;;;;;4955395;28;20045;-77
2023/05/15 06:45:07;;;;;;;18.73;14.90;;;16.60;99.90;;;;;;4991246;28;20042;-76
2023/05/15 06:47:33;;;;;;;19.75;16.25;;;16.10;99.90;;;;;;4993151;28;20631;-78
2023/05/15 06:49:59;;;;;;;17.67;15.25;;;16.10;99.90;;;;;;4979006;28;20041;-75
2023/05/15 06:52:25;;;;;;;17.02;13.70;;;16.20;99.90;;;;;;5004852;28;20041;-77
2023/05/15 06:54:50;;;;;;;16.25;14.52;;;16.30;99.90;;;;;;4976505;28;20137;-75
2023/05/15 06:57:17;;;;;;;17.75;13.32;;;16.90;99.90;;;;;;4998448;28;20034;-76
2023/05/15 06:59:43;;;;;;;14.73;13.07;;;17.00;99.90;;;;;;4984149;28;20249;-76
2023/05/15 07:02:09;;;;;;;16.13;13.23;;;17.00;99.90;;;;;;4954813;28;20034;-78
2023/05/15 07:04:34;;;;;;;15.45;13.68;;;17.20;99.90;;;;;;4969663;28;20034;-79
2023/05/15 07:07:00;;;;;;;14.52;12.98;;;17.20;99.90;;;;;;5003016;28;20041;-79
2023/05/15 07:09:26;;;;;;;16.13;13.70;;;17.50;99.90;;;;;;4973189;28;20061;-76
2023/05/15 07:11:51;;;;;;;13.90;11.75;;;17.40;99.90;;;;;;4977169;28;20043;-77
2023/05/15 07:14:17;;;;;;;12.77;11.05;;;17.60;99.90;;;;;;4970830;28;20038;-80
2023/05/15 07:16:44;;;;;;;13.02;11.35;;;17.50;99.90;;;;;;4997434;28;20725;-80
2023/05/15 07:19:10;;;;;;;13.45;11.43;;;17.60;99.90;;;;;;4978319;28;20037;-76
2023/05/15 07:21:37;;;;;;;15.30;11.73;;;17.70;99.90;;;;;;4982767;28;20111;-76
2023/05/15 07:24:03;;;;;;;13.35;11.25;;;17.80;99.90;;;;;;4998899;28;20476;-77
2023/05/15 07:26:31;;;;;;;14.98;12.13;;;17.40;99.90;;;;;;4966841;28;20124;-77
2023/05/15 07:28:57;;;;;;;12.73;11.43;;;17.20;99.90;;;;;;4965794;28;20045;-78
2023/05/15 07:31:22;;;;;;;13.25;11.80;;;17.20;99.90;;;;;;4949736;28;20038;-76
2023/05/15 07:33:48;;;;;;;13.63;12.23;;;17.40;99.90;;;;;;4968122;28;21671;-76
2023/05/15 07:36:14;;;;;;;10.77;9.65;;;17.50;99.90;;;;;;4966914;28;20041;-75
2023/05/15 07:38:39;;;;;;;12.10;10.40;;;17.10;99.90;;;;;;5017142;28;20362;-76
2023/05/15 07:41:05;;;;;;;12.75;10.77;;;17.20;99.90;;;;;;4983385;28;20041;-77
2023/05/15 07:43:31;;;;;;;11.57;10.38;;;17.40;99.90;;;;;;4966816;28;20038;-77
2023/05/15 07:45:56;;;;;;;12.52;11.23;;;17.50;99.90;;;;;;4982539;28;20099;-78
2023/05/15 07:48:22;;;;;;;11.70;10.50;;;17.70;99.90;;;;;;4981837;28;20172;-75
2023/05/15 07:50:51;;;;;;;12.77;11.00;;;18.00;99.90;;;;;;4953935;28;20041;-74
2023/05/15 07:53:16;;;;;;;11.20;8.95;;;18.00;99.90;;;;;;4997849;28;20046;-74
2023/05/15 07:55:43;;;;;;;11.20;10.02;;;17.70;99.90;;;;;;4968985;28;20045;-74
2023/05/15 07:58:09;;;;;;;12.15;10.88;;;17.70;99.90;;;;;;4972979;28;20134;-75
2023/05/15 08:00:35;;;;;;;12.20;10.07;;;17.90;99.90;;;;;;4971937;28;20046;-72
2023/05/15 08:03:01;;;;;;;10.90;9.30;;;18.00;99.90;;;;;;4971148;28;20042;-79
2023/05/15 08:05:28;;;;;;;11.98;10.48;;;17.90;99.90;;;;;;4969485;28;20045;-75
2023/05/15 08:07:55;;;;;;;16.05;10.02;;;17.70;99.90;;;;;;4982832;28;20055;-75
2023/05/15 08:10:21;;;;;;;10.30;9.30;;;17.80;99.90;;;;;;4983409;28;20033;-74
2023/05/15 08:12:47;;;;;;;10.68;9.68;;;18.50;99.90;;;;;;4966441;28;20627;-78
2023/05/15 08:15:13;;;;;;;11.32;9.52;;;18.40;99.90;;;;;;4985071;28;20033;-76
2023/05/15 08:17:39;;;;;;;10.68;9.68;;;18.20;99.90;;;;;;5013606;28;20057;-75
2023/05/15 08:20:06;;;;;;;10.05;8.88;;;18.30;99.90;;;;;;4985298;28;20060;-75
2023/05/15 08:22:31;;;;;;;11.00;9.77;;;18.30;99.90;;;;;;4981601;28;20519;-78
2023/05/15 08:24:59;;;;;;;10.68;9.20;;;18.10;99.90;;;;;;4987104;28;20034;-74
2023/05/15 08:27:25;;;;;;;9.52;8.50;;;18.00;99.90;;;;;;5005160;28;20053;-75
2023/05/15 08:29:51;;;;;;;12.85;9.68;;;18.50;99.90;;;;;;4994628;28;20049;-75
2023/05/15 08:32:17;;;;;;;12.40;9.05;;;18.50;99.90;;;;;;5009259;28;20970;-75
2023/05/15 08:34:43;;;;;;;9.82;8.82;;;18.40;99.90;;;;;;4971605;28;20122;-76
2023/05/15 08:37:09;;;;;;;11.23;10.07;;;18.60;99.90;;;;;;4983290;28;20049;-77
2023/05/15 08:39:35;;;;;;;10.65;9.60;;;18.60;99.90;;;;;;4979336;28;20136;-75
2023/05/15 08:42:20;;;;;;;10.15;9.13;;;18.20;99.90;;;;;;5004066;28;20607;-77
2023/05/15 08:44:49;;;;;;;;;;;18.30;99.90;;;;;;4982242;28;20072;-76
2023/05/15 08:47:15;;;;;;;10.90;9.73;;;18.50;99.90;;;;;;4984372;28;19929;-75
2023/05/15 08:50:13;;;;;;;10.63;9.52;;;18.60;99.90;;;;;;4965536;28;20470;-75
2023/05/15 08:52:45;;;;;;;11.48;9.25;;;18.70;99.90;;;;;;4996282;28;20083;-78
2023/05/15 08:55:15;;;;;;;12.50;9.10;;;18.80;99.90;;;;;;4995617;28;20398;-78
2023/05/15 08:57:41;;;;;;;11.55;9.25;;;18.60;99.90;;;;;;4975196;28;20052;-79
2023/05/15 09:00:08;;;;;;;12.18;9.32;;;19.00;99.90;;;;;;4963886;28;20069;-76
2023/05/15 09:02:37;;;;;;;12.00;9.90;;;18.90;99.90;;;;;;4978002;28;20137;-78
2023/05/15 09:05:05;;;;;;;12.20;10.20;;;19.00;99.90;;;;;;4979796;28;21745;-77
2023/05/15 09:07:31;;;;;;;12.43;9.85;;;19.10;99.90;;;;;;5012681;28;20383;-76
2023/05/15 09:09:58;;;;;;;10.43;9.32;;;19.20;99.90;;;;;;4981685;28;20385;-76
2023/05/15 09:12:25;;;;;;;9.90;8.70;;;19.30;99.90;;;;;;4982540;28;20121;-78
2023/05/15 09:15:06;;;;;;;9.93;8.93;;;19.40;99.90;;;;;;4997843;28;20113;-77
2023/05/15 09:17:32;;;;;;;10.13;9.13;;;19.10;99.90;;;;;;4981879;28;20072;-76
2023/05/15 09:19:57;;;;;;;10.05;9.02;;;19.10;99.90;;;;;;4975261;28;20592;-77
2023/05/15 09:22:24;;;;;;;10.50;9.55;;;19.20;99.90;;;;;;4981821;28;20042;-77
2023/05/15 09:24:51;;;;;;;11.77;8.85;;;19.50;99.90;;;;;;4995402;28;20046;-76
2023/05/15 09:27:18;;;;;;;12.52;11.23;;;19.50;99.90;;;;;;4963341;28;20042;-75
2023/05/15 09:29:44;;;;;;;11.88;10.65;;;19.50;99.90;;;;;;4965364;28;20038;-78
2023/05/15 09:32:12;;;;;;;12.07;10.77;;;19.50;99.90;;;;;;4985239;28;20039;-77
2023/05/15 09:34:41;;;;;;;11.35;9.05;;;19.70;99.90;;;;;;4964323;28;20580;-77
2023/05/15 09:37:08;;;;;;;10.00;8.00;;;19.90;99.90;;;;;;5001826;28;20045;-76
2023/05/15 09:39:42;;;;;;;10.23;9.23;;;20.00;99.90;;;;;;4966757;28;20325;-77
2023/05/15 09:42:09;;;;;;;10.60;9.53;;;20.40;99.90;;;;;;4985296;28;20038;-76
2023/05/15 09:44:34;;;;;;;11.57;9.20;;;20.20;99.90;;;;;;4986558;28;20095;-77
2023/05/15 09:47:01;;;;;;;11.05;9.77;;;20.60;99.90;;;;;;4991578;28;20066;-76
2023/05/15 09:49:28;;;;;;;10.05;9.10;;;19.80;99.90;;;;;;4981335;28;20565;-76
2023/05/15 09:51:57;;;;;;;10.57;9.32;;;20.20;99.90;;;;;;4997773;28;20034;-77
2023/05/15 09:54:26;;;;;;;10.60;9.50;;;20.50;99.90;;;;;;4978721;28;20049;-75
2023/05/15 09:56:52;;;;;;;11.05;10.05;;;20.80;99.90;;;;;;4969331;28;20137;-75
2023/05/15 09:59:20;;;;;;;11.90;8.93;;;20.80;99.90;;;;;;4987549;28;20719;-77
2023/05/15 10:01:48;;;;;;;9.93;8.90;;;20.80;99.90;;;;;;4999222;28;20060;-76
2023/05/15 10:04:15;;;;;;;9.95;9.05;;;20.70;99.90;;;;;;4951201;28;20052;-76
2023/05/15 10:06:51;;;;;;;9.85;8.82;;;20.90;99.90;;;;;;4979215;28;20046;-77
2023/05/15 10:09:16;;;;;;;9.10;8.27;;;20.80;99.90;;;;;;4961506;28;20042;-79
2023/05/15 10:11:48;;;;;;;9.30;8.50;;;20.90;99.90;;;;;;4949321;28;20087;-77
2023/05/15 10:14:15;;;;;;;8.88;8.07;;;21.00;99.90;;;;;;4972242;28;20648;-77
2023/05/15 10:16:41;;;;;;;9.52;8.60;;;21.20;99.90;;;;;;5046362;28;20034;-78
2023/05/15 10:19:10;;;;;;;8.52;7.72;;;21.40;99.90;;;;;;4980302;28;20098;-77
2023/05/15 10:21:40;;;;;;;9.27;8.38;;;21.40;99.90;;;;;;4963064;28;20128;-77
2023/05/15 10:24:07;;;;;;;8.93;8.02;;;21.40;99.90;;;;;;4961924;28;20044;-79
2023/05/15 10:26:41;;;;;;;7.97;7.28;;;21.50;99.90;;;;;;4963927;28;20056;-77
2023/05/15 10:29:12;;;;;;;8.48;6.63;;;21.30;99.90;;;;;;4978825;28;20117;-77
2023/05/15 10:31:47;;;;;;;7.13;6.43;;;21.20;99.90;;;;;;4955044;28;20069;-78
2023/05/15 10:34:13;;;;;;;7.80;6.53;;;21.50;99.90;;;;;;4970742;28;20121;-78
2023/05/15 10:36:40;;;;;;;7.05;6.35;;;21.60;99.90;;;;;;4976979;28;20172;-82
2023/05/15 10:39:06;;;;;;;7.32;6.32;;;21.50;99.90;;;;;;4970265;28;20060;-77
2023/05/15 10:41:35;;;;;;;7.93;6.80;;;21.40;99.90;;;;;;4985155;28;20141;-77
2023/05/15 10:44:02;;;;;;;6.65;6.05;;;21.50;99.90;;;;;;4961564;28;20037;-78
2023/05/15 10:46:30;;;;;;;7.55;6.53;;;21.40;99.90;;;;;;4979618;28;20061;-78
2023/05/15 10:48:59;;;;;;;7.85;6.50;;;21.30;99.90;;;;;;4963575;28;20034;-78
2023/05/15 10:51:26;;;;;;;8.65;6.70;;;21.30;99.90;;;;;;4993106;28;20080;-77
2023/05/15 10:53:53;;;;;;;9.27;7.30;;;20.90;99.90;;;;;;4989872;28;20684;-79
2023/05/15 10:56:20;;;;;;;9.48;6.75;;;21.00;99.90;;;;;;4977159;28;20070;-78
2023/05/15 10:58:50;;;;;;;8.88;7.28;;;21.20;99.90;;;;;;4977658;28;20050;-77
2023/05/15 11:01:30;;;;;;;7.20;6.53;;;21.10;99.90;;;;;;4946556;28;20076;-78
2023/05/15 11:04:16;;;;;;;8.73;7.22;;;21.20;99.90;;;;;;4982165;28;20733;-77
2023/05/15 11:06:46;;;;;;;7.50;6.53;;;21.60;99.90;;;;;;4965564;28;20046;-76
2023/05/15 11:09:24;;;;;;;7.55;6.85;;;21.60;99.90;;;;;;5043798;28;20090;-78
2023/05/15 11:11:50;;;;;;;8.10;7.28;;;21.50;99.90;;;;;;4978723;28;20121;-80
2023/05/15 11:14:16;;;;;;;9.82;6.20;;;21.40;99.90;;;;;;4978266;28;20044;-78
2023/05/15 11:16:57;;;;;;;7.43;6.60;;;21.80;99.90;;;;;;4996119;28;20114;-79
2023/05/15 11:19:54;;;;;;;8.65;7.75;;;21.90;99.90;;;;;;4979231;28;20530;-79
2023/05/15 11:22:26;;;;;;;8.43;7.55;;;22.00;99.90;;;;;;4955020;28;20042;-78
2023/05/15 11:24:57;;;;;;;7.45;6.63;;;21.50;99.90;;;;;;4984748;28;20393;-76
2023/05/15 11:27:39;;;;;;;9.35;7.25;;;21.60;99.90;;;;;;4986371;28;20120;-77
2023/05/15 11:30:21;;;;;;;6.97;5.65;;;21.90;99.90;;;;;;4986290;28;20077;-77
2023/05/15 11:32:46;;;;;;;7.78;7.07;;;22.10;99.90;;;;;;4993794;28;20034;-80
2023/05/15 11:35:26;;;;;;;7.53;6.82;;;21.70;99.90;;;;;;4984746;28;20088;-76
2023/05/15 11:37:54;;;;;;;7.60;6.90;;;21.40;99.90;;;;;;4982710;28;20441;-79
2023/05/15 11:40:30;;;;;;;7.70;7.00;;;21.40;99.90;;;;;;4964069;28;20822;-77
2023/05/15 11:43:14;;;;;;;7.88;6.93;;;21.20;99.90;;;;;;4981937;28;20042;-78
2023/05/15 11:45:40;;;;;;;8.47;7.13;;;20.70;99.90;;;;;;5011644;28;20042;-76
2023/05/15 11:48:11;;;;;;;7.85;7.13;;;20.50;99.90;;;;;;4985919;28;20687;-77
2023/05/15 11:50:37;;;;;;;8.52;7.63;;;20.60;99.90;;;;;;5010135;28;20049;-76
2023/05/15 11:53:05;;;;;;;7.70;6.78;;;20.30;99.90;;;;;;5009248;28;20043;-77
2023/05/15 11:55:33;;;;;;;7.50;6.80;;;20.60;99.90;;;;;;4962896;28;20038;-77
2023/05/15 11:57:59;;;;;;;8.98;8.15;;;20.60;99.90;;;;;;4975903;28;20062;-78
2023/05/15 12:00:25;;;;;;;8.38;7.57;;;20.50;99.90;;;;;;4966633;28;20383;-79
2023/05/15 12:02:51;;;;;;;9.32;8.10;;;20.20;99.90;;;;;;4969593;28;20049;-77
2023/05/15 12:05:17;;;;;;;9.57;8.65;;;20.00;99.90;;;;;;4961736;28;20050;-77
2023/05/15 12:07:43;;;;;;;8.48;7.07;;;19.90;99.90;;;;;;4991995;28;20112;-78
2023/05/15 12:10:11;;;;;;;9.30;7.75;;;19.90;99.90;;;;;;4983133;28;20049;-76
2023/05/15 12:12:47;;;;;;;8.40;7.60;;;19.60;99.90;;;;;;4975698;28;20510;-78
2023/05/15 12:15:15;;;;;;;9.20;8.30;;;19.80;99.90;;;;;;4954092;28;20053;-76
2023/05/15 12:17:43;;;;;;;8.95;7.57;;;19.50;99.90;;;;;;4967505;28;20057;-78
2023/05/15 12:20:11;;;;;;;9.95;8.20;;;19.70;99.90;;;;;;4981676;28;20108;-78
2023/05/15 12:22:38;;;;;;;8.05;7.25;;;19.70;99.90;;;;;;4967939;28;20437;-77
2023/05/15 12:25:06;;;;;;;10.13;7.97;;;19.80;99.90;;;;;;4979706;28;20103;-78
2023/05/15 12:27:33;;;;;;;11.02;8.63;;;19.90;99.90;;;;;;4984286;28;20046;-76
2023/05/15 12:30:00;;;;;;;9.25;8.35;;;19.80;99.90;;;;;;4960582;28;20042;-76
2023/05/15 12:32:27;;;;;;;8.50;7.70;;;19.80;99.90;;;;;;4982187;28;20034;-77
2023/05/15 12:34:53;;;;;;;9.10;8.20;;;19.40;99.90;;;;;;4990659;28;20089;-75